NWS Home NWS Lubbock West Texas Mesonet Latest Conditions as of 0958 AM, Sat Feb 25, 2017

Latest   N   C   S   Daily Sum   3hrΔ   24hrΔ   Soil Data 
Site Map   24hr Precip   72hr Precip   Google Plot


Station Time of Last Temp Dew Pt. RH Wind Direction Wind Speed Wind Gust Max Wind Max Temp Min Temp Max RH Min RH Altimeter 1HR Rain Today's Rain Solar Rad Wind ChillRed Flag
Abernathy 5ENE  09:50 AM 33 21 60% SE913 14 mph 145° @ 0945 AM 33 18 93 60 30.20" 0 0 493 25  
Aiken 3WSW  09:50 AM 32 18 56% SE89 14 mph 65° @ 1241 AM 32 14 89 53 30.21" 0 0 512 25  
Amarillo 15NNW   09:50 AM 30 19 62% SW68 10 mph 228° @ 0949 AM 30 14 87 62 30.18" 0 0 469 24  
Amarillo 7SSE  09:50 AM 31 18 57% SW1012 15 mph 222° @ 0949 AM 32 13 89 57 30.18" 0 0 495 22  
Amarillo 9NNE  09:50 AM 33 19 56% S1114 14 mph 200° @ 0950 AM 33 11 96 56 30.17" 0 0 467 25  
Amherst 1NE  09:50 AM 32 19 57% SE1114 16 mph 145° @ 0940 AM 32 19 82 57 30.18" 0 0 490 23  
Andrews 2E  09:50 AM 38 19 48% E1116 18 mph 88° @ 0925 AM 42 28 71 41 30.20" 0 0 479    
Anton 6SSW  09:50 AM 33 20 59% SE1018 18 mph 138° @ 0950 AM 33 19 78 50 30.19" 0 0 473 25  
Aspermont 3NE  09:50 AM 37 22 55% N610 18 mph 33° @ 1250 AM 40 24 83 47 30.27" 0 0 510    
Big Bend NP - Persimmon Gap  09:50 AM 50 25 37% NE1921 33 mph 36° @ 0822 AM 60 47 39 9 30.14" 0 0 546    
Big Lake 1WNW  09:50 AM 40 24 51% E1214 20 mph 74° @ 1233 AM 47 33 73 46 30.20" 0 0 424    
Bootleg 11WNW  09:50 AM 30 16 57% S1520 22 mph 183° @ 0948 AM 31 12 83 56 30.14" 0 0 408 19  
Boys Ranch 1WSW  09:50 AM 28 15 58% W35 12 mph 268° @ 0709 AM 28 15 85 56 30.19" 0 0 457    
Brownfield 2S  09:50 AM 34 17 50% SE1215 17 mph 78° @ 1225 AM 37 26 71 47 30.20" 0 0 509 25  
Canadian 6E  09:50 AM 28 13 54% W34 11 mph 22° @ 0101 AM 28 13 89 54 30.19" 0 0 527    
Caprock Canyons State Park  09:50 AM 32 20 61% E45 12 mph 16° @ 1202 AM 33 22 84 57 30.24" 0 0 399    
Childress 2NNE  09:50 AM 31 16 53% N57 13 mph 12° @ 0425 AM 33 22 87 53 30.27" 0 0 496    
Clarendon 2WSW  09:50 AM 31 16 54% SW47 11 mph 31° @ 0255 AM 31 15 88 54 30.21" 0 0 456    
Claude 12SW  09:50 AM 31 19 60% S810 16 mph 53° @ 1208 AM 31 19 81 59 30.18" 0 0 527 23  
Clyde 2WNW  09:50 AM 38 21 50% NE810 25 mph 44° @ 1222 AM 42 27 83 49 30.24" 0 0 543    
Coyanosa 2N  09:50 AM 45 25 45% E1215 18 mph 75° @ 0927 AM 47 34 62 16 30.19" 0 0 422    
Crowell 1E  09:50 AM 34 19 54% NE78 16 mph 37° @ 1202 AM 38 26 84 54 30.30" 0 0 507 28  
Dell City  09:50 AM 42 10 26% E12 14 mph 110° @ 1226 AM 46 22 56 23 30.14" 0 0 482    
Denver City 7WNW  09:50 AM 34 18 49% SE1317 18 mph 115° @ 0855 AM 37 22 79 47 30.17" 0 0 470 25  
Dimmitt 2NE  09:50 AM 30 20 66% S1215 17 mph 169° @ 0935 AM 30 17 88 66 30.16" 0 0 428 20  
Dora NM 2SW  09:50 AM 33 15 48% S2226 28 mph 171° @ 0945 AM 33 21 73 48 30.13" 0 0 382 21  
Dozier 3W  05:25 AM 22 16 78% N67 13 mph 10° @ 1225 AM 30 22 78 61 30.19" 0 0 0 14  
Floydada 2NNE  09:50 AM 32 18 56% SE58 16 mph 51° @ 1210 AM 32 16 92 56 30.20" 0 0 507 27  
Fluvanna 3WNW  09:50 AM 35 18 49% E811 24 mph 44° @ 1230 AM 39 25 78 43 30.22" 0 0 469 28  
Fort Chadbourne  09:50 AM 42 17 37% E1214 17 mph 46° @ 0146 AM 42 30 78 36 30.24" 0 0 550    
Fort Lewis CO  09:50 AM 23 0 37% W46 11 mph 330° @ 0125 AM 23 -1 75 37 30.03" 0 0 460    
Fort McKavett  09:50 AM 42 27 53% NE813 15 mph 82° @ 0936 AM 43 31 88 51 30.23" 0 0 545    
Friona 2NE  09:50 AM 30 19 63% S1418 18 mph 179° @ 0945 AM 30 11 89 63 30.16" 0 0 457 20  
Gail 2ESE  09:50 AM 37 18 44% E813 17 mph 45° @ 1230 AM 41 25 79 41 30.22" 0 0 450    
Goodlett 3W  09:50 AM 32 17 55% SE36 17 mph 20° @ 0520 AM 35 22 87 55 30.29" 0 0 480    
Goodnight  09:50 AM 32 18 54% SW1011 11 mph 209° @ 0950 AM 32 16 90 52 30.21" 0 0 519 24  
Graham 5SSW  09:40 AM 35 18 51% E812 26 mph 58° @ 1215 AM 38 27 73 44 30.22" 0 0 417 28  
Guadalupe Mtns Natl Park  09:50 AM 37 16 43% NE12 34 mph 313° @ 0337 AM 48 26 53 11 30.14" 0 0 443   10
Guthrie 10WSW  09:50 AM 35 22 60% NE710 12 mph 29° @ 0910 AM 35 26 76 57 30.26" 0 0 432 29  
Hart 3N  09:50 AM 31 19 63% S912 14 mph 169° @ 0945 AM 31 14 89 63 30.18" 0 0 491 23  
Haskell 1NW  09:50 AM 37 25 62% N47 26 mph 43° @ 1245 AM 41 27 80 49 30.27" 0 0 481    
Hereford 2NW  09:50 AM 30 18 61% S914 14 mph 187° @ 0950 AM 30 15 85 61 30.16" 0 0 484 22  
Hobbs NM 5NW  09:50 AM 35 19 51% SE1112 19 mph 122° @ 0924 AM 39 25 72 40 30.20" 0 0 482 27  
Jayton 1SSE  09:50 AM 36 23 58% E511 13 mph 33° @ 0130 AM 38 26 83 50 30.26" 0 0 481    
Junction 1SSW  09:50 AM 43 29 56% NE911 16 mph 55° @ 0901 AM 47 32 92 55 30.23" 0 0 471    
Knox City 3NW  09:50 AM 36 23 60% NE58 18 mph 34° @ 1205 AM 40 25 85 45 30.30" 0 0 445    
Lake Alan Henry 1NW  09:50 AM 38 17 43% E78 19 mph 52° @ 0213 AM 40 26 72 40 30.24" 0 0 511    
Lamesa 2SE  09:50 AM 36 19 52% E1015 19 mph 58° @ 1240 AM 41 27 75 44 30.22" 0 0 430    
Levelland 4S  09:50 AM 33 17 51% SE1216 16 mph 59° @ 0140 AM 34 22 75 46 30.19" 0 0 477 24  
Lomax 1SSE  09:50 AM 39 21 46% NE68 16 mph 60° @ 0259 AM 42 28 77 46 30.22" 0 0 547    
Lubbock 3WNW TTU  09:50 AM 36 18 48% SE912 19 mph 70° @ 1245 AM 36 24 71 42 30.20" 0 0 481    
McCamey 1SSW  09:50 AM 43 25 48% E1315 22 mph 56° @ 0227 AM 52 37 64 18 30.20" 0 0 481    
McLean 1E  09:50 AM 30 11 46% S13 15 mph 10° @ 0430 AM 30 17 81 46 30.19" 0 0 516    
Memphis 1NE  09:50 AM 31 15 53% E25 13 mph 20° @ 0320 AM 33 22 83 52 30.27" 0 0 415    
Menard 2NW   09:50 AM 42 25 49% E1012 18 mph 67° @ 0911 AM 43 31 91 49 30.23" 0 0 503    
Mertzon 3NNE  09:50 AM 41 23 48% E1315 18 mph 72° @ 0922 AM 41 29 87 48 30.24" 0 0 462    
Morton 1ENE  09:50 AM 34 17 49% SE1317 19 mph 140° @ 0920 AM 34 21 72 47 30.17" 0 0 447 25  
Muleshoe 2SSW  09:50 AM 33 18 55% SE1115 16 mph 167° @ 0935 AM 33 12 92 55 30.17" 0 0 482 25  
New Home  09:50 AM 35 18 50% SE810 18 mph 79° @ 1214 AM 37 25 76 44 30.21" 0 0 534 29  
Northfield 1S  09:50 AM 32 18 56% NE26 13 mph 54° @ 1205 AM 35 24 88 56 30.27" 0 0 477    
O'Donnell 1N  09:50 AM 34 18 53% E812 25 mph 62° @ 1235 AM 38 25 72 41 30.21" 0 0 401 27  
Odell 4ENE  09:50 AM 33 19 56% N78 16 mph 27° @ 1201 AM 36 24 91 54 30.31" 0 0 456 27  
Olton 6S  09:50 AM 32 19 60% SE811 14 mph 160° @ 0925 AM 32 17 89 58 30.18" 0 0 472 25  
Paducah 10SW  09:50 AM 33 20 58% NE58 17 mph 45° @ 1205 AM 35 24 87 57 30.27" 0 0 411 28  
Palo Duro Canyon SP Floor  09:50 AM 35 19 51% SE46 7 mph 233° @ 0106 AM 35 19 83 50 30.21" 0 0 462    
Palo Duro Canyon State Park Rim  09:50 AM 32 18 55% S711 12 mph 180° @ 0948 AM 33 18 81 53 30.19" 0 0 508 26  
Pampa 2E  09:50 AM 27 15 61% S79 9 mph 198° @ 0950 AM 27 12 92 60 30.18" 0 0 438 19  
Panhandle 1SSW  09:50 AM 31 18 57% SW1315 18 mph 197° @ 0939 AM 31 11 91 55 30.18" 0 0 515 21  
Plains 3N  09:50 AM 34 17 49% SE1215 19 mph 118° @ 0925 AM 36 22 73 46 30.17" 0 0 382 25  
Plainview 1S  09:50 AM 31 21 65% S712 14 mph 169° @ 0945 AM 31 19 85 56 30.19" 0 0 460 24  
Post 1NE  09:50 AM 37 18 46% SE811 14 mph 43° @ 0150 AM 38 28 68 45 30.23" 0 0 515    
Ralls 1SE  09:50 AM 34 18 52% SE710 20 mph 62° @ 1205 AM 34 23 83 47 30.21" 0 0 501 28  
Reese Center  09:50 AM 34 18 51% SE1115 19 mph 70° @ 1220 AM 35 21 79 47 30.19" 0 0 531 26  
Roaring Springs 3N  09:50 AM 32 19 59% NE58 14 mph 35° @ 1210 AM 32 24 84 58 30.23" 0 0 404    
San Angelo 7NW  09:50 AM 42 22 45% E913 15 mph 74° @ 0935 AM 44 30 74 45 30.24" 0 0 505    
Seagraves 1SW  09:45 AM 35 19 53% SE812 18 mph 76° @ 0135 AM 39 26 73 44 30.20" 0 0 397 29  
Seminole 2NNE  09:50 AM 36 19 50% E1216 18 mph 115° @ 0930 AM 39 25 74 44 30.19" 0 0 487    
Seymour 3NW  09:50 AM 34 21 58% N510 25 mph 29° @ 1205 AM 39 28 92 54 30.30" 0 0 524 29  
Sierra Blanca 1SSE  09:50 AM 51 6 15% NW45 21 mph 318° @ 1205 AM 52 35 31 15 30.15" 0 0 533    
Silverton 7ESE  09:50 AM 32 18 58% SE68 14 mph 58° @ 1225 AM 32 18 82 58 30.21" 0 0 455 26  
Slaton 2NE  09:50 AM 34 19 54% SE1015 18 mph 55° @ 0120 AM 36 26 74 45 30.21" 0 0 458 26  
Snyder 3E  09:50 AM 38 20 47% NE913 23 mph 50° @ 1220 AM 41 28 77 46 30.23" 0 0 416    
Snyder 3SSW  09:50 AM 38 18 44% NE911 23 mph 53° @ 1218 AM 42 28 74 43 30.24" 0 0 538    
Spur 1W  09:50 AM 35 20 56% E58 20 mph 53° @ 1225 AM 37 24 85 45 30.24" 0 0 448    
St. Lawrence 5SW  09:50 AM 40 21 47% E1417 20 mph 83° @ 0930 AM 45 30 71 47 30.21" 0 0 532    
Stamford 5ESE  09:50 AM 37 22 55% NE68 22 mph 49° @ 0123 AM 41 28 82 51 30.28" 0 0 570    
Sterling City 4WSW  09:50 AM 40 23 49% E810 12 mph 52° @ 0934 AM 41 21 91 48 30.23" 0 0 457    
Sundown 8WSW  09:50 AM 35 18 49% SE1217 21 mph 128° @ 0945 AM 35 22 76 49 30.17" 0 0 389 27  
Sweetwater 11SW   09:50 AM 38 20 47% E1013 26 mph 51° @ 0255 AM 40 28 80 46 30.23" 0 0 536    
Tahoka 3NNE  09:50 AM 36 17 46% SE1113 21 mph 68° @ 0149 AM 38 23 77 42 30.20" 0 0 511    
Tarzan 2WNW  09:50 AM 37 19 48% E1316 20 mph 62° @ 0358 AM 43 30 66 44 30.22" 0 0 552    
Tatum NM 2SW  09:50 AM 34 17 50% SE1317 17 mph 137° @ 0950 AM 34 18 79 50 30.17" 0 0 437 25  
Throckmorton 1SW  09:50 AM 37 22 56% N59 25 mph 41° @ 1216 AM 41 28 84 52 30.29" 0 0 561    
Tulia 2ENE  09:45 AM 31 21 69% S914 14 mph 170° @ 0945 AM 31 15 93 69 30.19" 0 0 431 23  
Turkey 2WSW  09:50 AM 32 21 65% E47 9 mph 46° @ 1205 AM 32 24 85 61 30.24" 0 0 456    
Umbarger 3NNE  09:50 AM 30 18 61% SW1314 16 mph 205° @ 0944 AM 30 14 86 61 30.17" 0 0 502 20  
Vigo Park  09:50 AM 31 19 60% SE68 13 mph 59° @ 1222 AM 32 14 87 59 30.20" 0 0 475 25  
Wall 2E  09:50 AM 41 25 53% E1315 16 mph 54° @ 0917 AM 41 30 81 52 30.25" 0 0 577    
Weinert 2NNE  09:50 AM 36 25 64% NE69 23 mph 52° @ 1242 AM 40 28 79 50 30.29" 0 0 528    
Welch  09:50 AM 37 19 49% SE1114 19 mph 74° @ 0202 AM 40 26 70 42 30.22" 0 0 507    
White River Lake 6NW  09:50 AM 35 18 49% E48 20 mph 32° @ 0135 AM 36 25 71 43 30.22" 0 0 490    
Wolfforth 6SSW  09:50 AM 34 17 50% SE1116 20 mph 73° @ 1220 AM 37 23 71 42 30.20" 0 0 455 26  

West Texas Mesonet Home   Site Map/Menu  NWS Lubbock Soil Data  Daily Summary Page  24hr Precip  72hr Precip  Google Plot